sensor_id;sensor_type;location;lat;lon;timestamp;P1;durP1;ratioP1;P2;durP2;ratioP2
10277;SDS011;5184;51.376;7.148;2022-09-03T00:02:03;3.10;;;1.33;;
10277;SDS011;5184;51.376;7.148;2022-09-03T00:04:33;2.20;;;1.43;;
10277;SDS011;5184;51.376;7.148;2022-09-03T00:06:59;2.30;;;1.83;;
10277;SDS011;5184;51.376;7.148;2022-09-03T00:09:24;2.70;;;1.37;;
10277;SDS011;5184;51.376;7.148;2022-09-03T00:11:52;1.93;;;1.50;;
10277;SDS011;5184;51.376;7.148;2022-09-03T00:14:20;1.60;;;1.30;;
10277;SDS011;5184;51.376;7.148;2022-09-03T00:16:48;1.50;;;1.40;;
10277;SDS011;5184;51.376;7.148;2022-09-03T00:19:18;2.27;;;1.40;;
10277;SDS011;5184;51.376;7.148;2022-09-03T00:21:47;2.57;;;1.43;;
10277;SDS011;5184;51.376;7.148;2022-09-03T00:24:13;2.47;;;1.57;;
10277;SDS011;5184;51.376;7.148;2022-09-03T00:26:39;3.00;;;1.40;;
10277;SDS011;5184;51.376;7.148;2022-09-03T00:29:10;1.40;;;1.30;;
10277;SDS011;5184;51.376;7.148;2022-09-03T00:31:36;1.50;;;1.40;;
10277;SDS011;5184;51.376;7.148;2022-09-03T00:34:09;1.57;;;1.40;;
10277;SDS011;5184;51.376;7.148;2022-09-03T00:36:38;2.43;;;1.40;;
10277;SDS011;5184;51.376;7.148;2022-09-03T00:39:04;2.27;;;1.37;;
10277;SDS011;5184;51.376;7.148;2022-09-03T00:41:35;1.47;;;1.33;;
10277;SDS011;5184;51.376;7.148;2022-09-03T00:46:41;2.20;;;1.47;;
10277;SDS011;5184;51.376;7.148;2022-09-03T00:49:16;2.40;;;1.60;;
10277;SDS011;5184;51.376;7.148;2022-09-03T00:54:19;2.30;;;1.27;;
10277;SDS011;5184;51.376;7.148;2022-09-03T00:56:53;1.63;;;1.50;;
10277;SDS011;5184;51.376;7.148;2022-09-03T01:02:02;2.10;;;1.50;;
10277;SDS011;5184;51.376;7.148;2022-09-03T01:04:34;1.80;;;1.70;;
10277;SDS011;5184;51.376;7.148;2022-09-03T01:07:09;2.73;;;1.40;;
10277;SDS011;5184;51.376;7.148;2022-09-03T01:09:43;1.50;;;1.40;;
10277;SDS011;5184;51.376;7.148;2022-09-03T01:12:18;1.47;;;1.23;;
10277;SDS011;5184;51.376;7.148;2022-09-03T01:14:48;3.90;;;1.60;;
10277;SDS011;5184;51.376;7.148;2022-09-03T01:17:18;2.93;;;1.50;;
10277;SDS011;5184;51.376;7.148;2022-09-03T01:20:54;2.50;;;1.40;;
10277;SDS011;5184;51.376;7.148;2022-09-03T01:22:34;2.07;;;1.30;;
10277;SDS011;5184;51.376;7.148;2022-09-03T01:27:58;3.00;;;1.33;;
10277;SDS011;5184;51.376;7.148;2022-09-03T01:30:16;1.80;;;1.70;;
10277;SDS011;5184;51.376;7.148;2022-09-03T01:32:44;1.13;;;1.10;;
10277;SDS011;5184;51.376;7.148;2022-09-03T01:35:28;1.40;;;1.30;;
10277;SDS011;5184;51.376;7.148;2022-09-03T01:37:57;2.33;;;1.27;;
10277;SDS011;5184;51.376;7.148;2022-09-03T01:40:34;3.00;;;1.50;;
10277;SDS011;5184;51.376;7.148;2022-09-03T01:43:17;2.47;;;1.50;;
10277;SDS011;5184;51.376;7.148;2022-09-03T01:48:20;3.00;;;1.43;;
10277;SDS011;5184;51.376;7.148;2022-09-03T01:50:54;1.43;;;1.20;;
10277;SDS011;5184;51.376;7.148;2022-09-03T01:53:56;2.40;;;1.47;;
10277;SDS011;5184;51.376;7.148;2022-09-03T01:56:36;2.50;;;1.50;;
10277;SDS011;5184;51.376;7.148;2022-09-03T01:59:04;1.83;;;1.37;;
10277;SDS011;5184;51.376;7.148;2022-09-03T02:01:38;3.10;;;1.50;;
10277;SDS011;5184;51.376;7.148;2022-09-03T02:04:15;1.43;;;1.20;;
10277;SDS011;5184;51.376;7.148;2022-09-03T02:06:42;1.97;;;1.20;;
10277;SDS011;5184;51.376;7.148;2022-09-03T02:09:09;1.30;;;1.20;;
10277;SDS011;5184;51.376;7.148;2022-09-03T02:11:36;1.60;;;1.40;;
10277;SDS011;5184;51.376;7.148;2022-09-03T02:14:04;1.60;;;1.40;;
10277;SDS011;5184;51.376;7.148;2022-09-03T02:16:32;2.00;;;1.40;;
10277;SDS011;5184;51.376;7.148;2022-09-03T02:18:59;1.60;;;1.40;;
10277;SDS011;5184;51.376;7.148;2022-09-03T02:21:26;4.40;;;1.83;;
10277;SDS011;5184;51.376;7.148;2022-09-03T02:23:51;2.23;;;1.30;;
10277;SDS011;5184;51.376;7.148;2022-09-03T02:26:20;3.33;;;1.13;;
10277;SDS011;5184;51.376;7.148;2022-09-03T02:28:45;1.43;;;1.33;;
10277;SDS011;5184;51.376;7.148;2022-09-03T02:31:12;1.90;;;1.60;;
10277;SDS011;5184;51.376;7.148;2022-09-03T02:33:41;1.60;;;1.50;;
10277;SDS011;5184;51.376;7.148;2022-09-03T02:36:06;1.43;;;1.30;;
10277;SDS011;5184;51.376;7.148;2022-09-03T02:38:32;2.37;;;1.40;;
10277;SDS011;5184;51.376;7.148;2022-09-03T02:40:58;2.70;;;1.40;;
10277;SDS011;5184;51.376;7.148;2022-09-03T02:43:26;1.60;;;1.50;;
10277;SDS011;5184;51.376;7.148;2022-09-03T02:45:53;2.57;;;1.50;;
10277;SDS011;5184;51.376;7.148;2022-09-03T02:48:19;2.27;;;1.40;;
10277;SDS011;5184;51.376;7.148;2022-09-03T02:50:46;2.27;;;1.43;;
10277;SDS011;5184;51.376;7.148;2022-09-03T02:53:13;5.30;;;1.50;;
10277;SDS011;5184;51.376;7.148;2022-09-03T02:55:39;1.50;;;1.40;;
10277;SDS011;5184;51.376;7.148;2022-09-03T02:58:06;1.63;;;1.50;;
10277;SDS011;5184;51.376;7.148;2022-09-03T03:00:33;1.67;;;1.50;;
10277;SDS011;5184;51.376;7.148;2022-09-03T03:02:59;3.93;;;1.53;;
10277;SDS011;5184;51.376;7.148;2022-09-03T03:05:31;2.27;;;1.53;;
10277;SDS011;5184;51.376;7.148;2022-09-03T03:07:53;1.87;;;1.23;;
10277;SDS011;5184;51.376;7.148;2022-09-03T03:10:20;1.57;;;1.30;;
10277;SDS011;5184;51.376;7.148;2022-09-03T03:12:47;2.20;;;1.20;;
10277;SDS011;5184;51.376;7.148;2022-09-03T03:15:15;1.43;;;1.33;;
10277;SDS011;5184;51.376;7.148;2022-09-03T03:17:42;1.30;;;1.20;;
10277;SDS011;5184;51.376;7.148;2022-09-03T03:20:09;1.60;;;1.50;;
10277;SDS011;5184;51.376;7.148;2022-09-03T03:22:37;1.53;;;1.30;;
10277;SDS011;5184;51.376;7.148;2022-09-03T03:25:04;1.40;;;1.30;;
10277;SDS011;5184;51.376;7.148;2022-09-03T03:27:31;1.33;;;1.23;;
10277;SDS011;5184;51.376;7.148;2022-09-03T03:29:58;2.33;;;1.40;;
10277;SDS011;5184;51.376;7.148;2022-09-03T03:32:26;2.03;;;1.20;;
10277;SDS011;5184;51.376;7.148;2022-09-03T03:34:53;3.27;;;1.40;;
10277;SDS011;5184;51.376;7.148;2022-09-03T03:37:20;1.73;;;1.53;;
10277;SDS011;5184;51.376;7.148;2022-09-03T03:39:48;1.90;;;1.40;;
10277;SDS011;5184;51.376;7.148;2022-09-03T03:42:15;1.27;;;1.10;;
10277;SDS011;5184;51.376;7.148;2022-09-03T03:44:42;2.10;;;1.40;;
10277;SDS011;5184;51.376;7.148;2022-09-03T03:47:09;3.53;;;1.33;;
10277;SDS011;5184;51.376;7.148;2022-09-03T03:49:36;1.20;;;1.10;;
10277;SDS011;5184;51.376;7.148;2022-09-03T03:52:02;1.30;;;1.20;;
10277;SDS011;5184;51.376;7.148;2022-09-03T03:54:29;1.33;;;1.23;;
10277;SDS011;5184;51.376;7.148;2022-09-03T03:56:55;1.43;;;1.33;;
10277;SDS011;5184;51.376;7.148;2022-09-03T03:59:22;1.43;;;1.10;;
10277;SDS011;5184;51.376;7.148;2022-09-03T04:01:49;1.47;;;1.37;;
10277;SDS011;5184;51.376;7.148;2022-09-03T04:04:16;2.27;;;1.30;;
10277;SDS011;5184;51.376;7.148;2022-09-03T04:06:43;1.40;;;1.30;;
10277;SDS011;5184;51.376;7.148;2022-09-03T04:09:11;3.00;;;1.57;;
10277;SDS011;5184;51.376;7.148;2022-09-03T04:11:38;1.60;;;1.40;;
10277;SDS011;5184;51.376;7.148;2022-09-03T04:14:05;1.37;;;1.20;;
10277;SDS011;5184;51.376;7.148;2022-09-03T04:16:33;1.30;;;1.20;;
10277;SDS011;5184;51.376;7.148;2022-09-03T04:19:00;2.03;;;1.50;;
10277;SDS011;5184;51.376;7.148;2022-09-03T04:21:28;3.63;;;1.33;;
10277;SDS011;5184;51.376;7.148;2022-09-03T04:23:54;1.57;;;1.30;;
10277;SDS011;5184;51.376;7.148;2022-09-03T04:26:22;1.17;;;1.17;;
10277;SDS011;5184;51.376;7.148;2022-09-03T04:28:47;1.70;;;1.50;;
10277;SDS011;5184;51.376;7.148;2022-09-03T04:31:14;1.90;;;1.27;;
10277;SDS011;5184;51.376;7.148;2022-09-03T04:33:40;1.50;;;1.40;;
10277;SDS011;5184;51.376;7.148;2022-09-03T04:36:09;1.47;;;1.33;;
10277;SDS011;5184;51.376;7.148;2022-09-03T04:38:35;1.60;;;1.50;;
10277;SDS011;5184;51.376;7.148;2022-09-03T04:41:02;1.90;;;1.30;;
10277;SDS011;5184;51.376;7.148;2022-09-03T04:43:28;1.53;;;1.43;;
10277;SDS011;5184;51.376;7.148;2022-09-03T04:45:58;1.53;;;1.20;;
10277;SDS011;5184;51.376;7.148;2022-09-03T04:48:24;1.80;;;1.50;;
10277;SDS011;5184;51.376;7.148;2022-09-03T04:50:50;1.40;;;1.30;;
10277;SDS011;5184;51.376;7.148;2022-09-03T04:53:17;2.70;;;1.60;;
10277;SDS011;5184;51.376;7.148;2022-09-03T04:55:45;2.30;;;1.50;;
10277;SDS011;5184;51.376;7.148;2022-09-03T04:58:12;3.17;;;1.40;;
10277;SDS011;5184;51.376;7.148;2022-09-03T05:00:39;1.30;;;1.20;;
10277;SDS011;5184;51.376;7.148;2022-09-03T05:03:07;2.00;;;1.50;;
10277;SDS011;5184;51.376;7.148;2022-09-03T05:05:34;2.50;;;1.40;;
10277;SDS011;5184;51.376;7.148;2022-09-03T05:08:02;1.60;;;1.27;;
10277;SDS011;5184;51.376;7.148;2022-09-03T05:10:29;1.33;;;1.23;;
10277;SDS011;5184;51.376;7.148;2022-09-03T05:12:57;1.83;;;1.50;;
10277;SDS011;5184;51.376;7.148;2022-09-03T05:15:28;2.87;;;1.47;;
10277;SDS011;5184;51.376;7.148;2022-09-03T05:17:56;1.50;;;1.40;;
10277;SDS011;5184;51.376;7.148;2022-09-03T05:20:23;3.30;;;1.50;;
10277;SDS011;5184;51.376;7.148;2022-09-03T05:22:50;2.13;;;1.20;;
10277;SDS011;5184;51.376;7.148;2022-09-03T05:25:16;1.40;;;1.23;;
10277;SDS011;5184;51.376;7.148;2022-09-03T05:27:43;1.63;;;1.37;;
10277;SDS011;5184;51.376;7.148;2022-09-03T05:30:10;1.33;;;1.23;;
10277;SDS011;5184;51.376;7.148;2022-09-03T05:32:37;2.10;;;1.37;;
10277;SDS011;5184;51.376;7.148;2022-09-03T05:35:04;1.73;;;1.37;;
10277;SDS011;5184;51.376;7.148;2022-09-03T05:37:31;1.50;;;1.40;;
10277;SDS011;5184;51.376;7.148;2022-09-03T05:39:58;3.10;;;1.30;;
10277;SDS011;5184;51.376;7.148;2022-09-03T05:42:25;3.10;;;1.50;;
10277;SDS011;5184;51.376;7.148;2022-09-03T05:44:51;1.50;;;1.37;;
10277;SDS011;5184;51.376;7.148;2022-09-03T05:47:18;1.77;;;1.37;;
10277;SDS011;5184;51.376;7.148;2022-09-03T05:49:44;1.77;;;1.33;;
10277;SDS011;5184;51.376;7.148;2022-09-03T05:52:12;3.03;;;1.40;;
10277;SDS011;5184;51.376;7.148;2022-09-03T05:54:39;2.90;;;1.30;;
10277;SDS011;5184;51.376;7.148;2022-09-03T05:57:06;4.43;;;1.77;;
10277;SDS011;5184;51.376;7.148;2022-09-03T05:59:34;1.80;;;1.50;;
10277;SDS011;5184;51.376;7.148;2022-09-03T06:02:00;2.30;;;1.23;;
10277;SDS011;5184;51.376;7.148;2022-09-03T06:04:27;1.67;;;1.40;;
10277;SDS011;5184;51.376;7.148;2022-09-03T06:06:54;1.47;;;1.37;;
10277;SDS011;5184;51.376;7.148;2022-09-03T06:09:21;3.83;;;1.63;;
10277;SDS011;5184;51.376;7.148;2022-09-03T06:11:48;3.23;;;1.47;;
10277;SDS011;5184;51.376;7.148;2022-09-03T06:14:15;3.33;;;1.30;;
10277;SDS011;5184;51.376;7.148;2022-09-03T06:16:43;2.47;;;1.40;;
10277;SDS011;5184;51.376;7.148;2022-09-03T06:19:09;4.20;;;1.50;;
10277;SDS011;5184;51.376;7.148;2022-09-03T06:21:36;2.37;;;1.13;;
10277;SDS011;5184;51.376;7.148;2022-09-03T06:24:02;1.47;;;1.30;;
10277;SDS011;5184;51.376;7.148;2022-09-03T06:26:29;1.97;;;1.20;;
10277;SDS011;5184;51.376;7.148;2022-09-03T06:28:56;2.50;;;1.40;;
10277;SDS011;5184;51.376;7.148;2022-09-03T06:31:22;3.27;;;1.50;;
10277;SDS011;5184;51.376;7.148;2022-09-03T06:33:49;1.50;;;1.40;;
10277;SDS011;5184;51.376;7.148;2022-09-03T06:36:16;2.60;;;1.43;;
10277;SDS011;5184;51.376;7.148;2022-09-03T06:38:42;2.73;;;1.30;;
10277;SDS011;5184;51.376;7.148;2022-09-03T06:41:10;1.43;;;1.33;;
10277;SDS011;5184;51.376;7.148;2022-09-03T06:43:38;2.47;;;1.50;;
10277;SDS011;5184;51.376;7.148;2022-09-03T06:46:05;1.83;;;1.30;;
10277;SDS011;5184;51.376;7.148;2022-09-03T06:48:32;1.33;;;1.20;;
10277;SDS011;5184;51.376;7.148;2022-09-03T06:51:00;1.70;;;1.40;;
10277;SDS011;5184;51.376;7.148;2022-09-03T06:53:27;1.73;;;1.20;;
10277;SDS011;5184;51.376;7.148;2022-09-03T06:55:56;3.80;;;1.43;;
10277;SDS011;5184;51.376;7.148;2022-09-03T06:58:22;1.33;;;1.23;;
10277;SDS011;5184;51.376;7.148;2022-09-03T07:00:49;1.10;;;1.10;;
10277;SDS011;5184;51.376;7.148;2022-09-03T07:03:15;1.40;;;1.30;;
10277;SDS011;5184;51.376;7.148;2022-09-03T07:05:42;1.50;;;1.20;;
10277;SDS011;5184;51.376;7.148;2022-09-03T07:08:09;1.80;;;1.27;;
10277;SDS011;5184;51.376;7.148;2022-09-03T07:10:35;1.80;;;1.43;;
10277;SDS011;5184;51.376;7.148;2022-09-03T07:13:02;2.33;;;1.43;;
10277;SDS011;5184;51.376;7.148;2022-09-03T07:15:29;2.37;;;1.23;;
10277;SDS011;5184;51.376;7.148;2022-09-03T07:17:56;2.07;;;1.40;;
10277;SDS011;5184;51.376;7.148;2022-09-03T07:20:22;1.30;;;1.20;;
10277;SDS011;5184;51.376;7.148;2022-09-03T07:22:52;2.20;;;1.40;;
10277;SDS011;5184;51.376;7.148;2022-09-03T07:25:17;2.00;;;1.30;;
10277;SDS011;5184;51.376;7.148;2022-09-03T07:27:44;2.20;;;1.57;;
10277;SDS011;5184;51.376;7.148;2022-09-03T07:30:12;1.30;;;1.20;;
10277;SDS011;5184;51.376;7.148;2022-09-03T07:32:38;2.80;;;1.30;;
10277;SDS011;5184;51.376;7.148;2022-09-03T07:35:05;1.93;;;1.40;;
10277;SDS011;5184;51.376;7.148;2022-09-03T07:37:32;1.77;;;1.40;;
10277;SDS011;5184;51.376;7.148;2022-09-03T07:39:59;2.20;;;1.50;;
10277;SDS011;5184;51.376;7.148;2022-09-03T07:42:25;1.40;;;1.30;;
10277;SDS011;5184;51.376;7.148;2022-09-03T07:44:52;3.00;;;1.50;;
10277;SDS011;5184;51.376;7.148;2022-09-03T07:47:18;2.40;;;1.30;;
10277;SDS011;5184;51.376;7.148;2022-09-03T07:49:45;1.60;;;1.37;;
10277;SDS011;5184;51.376;7.148;2022-09-03T07:52:12;2.50;;;1.50;;
10277;SDS011;5184;51.376;7.148;2022-09-03T07:54:40;1.83;;;1.30;;
10277;SDS011;5184;51.376;7.148;2022-09-03T07:57:06;1.60;;;1.50;;
10277;SDS011;5184;51.376;7.148;2022-09-03T07:59:34;1.53;;;1.40;;
10277;SDS011;5184;51.376;7.148;2022-09-03T08:02:01;2.67;;;1.20;;
10277;SDS011;5184;51.376;7.148;2022-09-03T08:04:28;2.87;;;1.57;;
10277;SDS011;5184;51.376;7.148;2022-09-03T08:06:56;1.97;;;1.43;;
10277;SDS011;5184;51.376;7.148;2022-09-03T08:09:22;1.40;;;1.30;;
10277;SDS011;5184;51.376;7.148;2022-09-03T08:11:50;1.53;;;1.17;;
10277;SDS011;5184;51.376;7.148;2022-09-03T08:14:17;2.27;;;1.43;;
10277;SDS011;5184;51.376;7.148;2022-09-03T08:16:45;1.90;;;1.43;;
10277;SDS011;5184;51.376;7.148;2022-09-03T08:19:13;3.63;;;1.50;;
10277;SDS011;5184;51.376;7.148;2022-09-03T08:21:40;1.93;;;1.50;;
10277;SDS011;5184;51.376;7.148;2022-09-03T08:24:06;2.60;;;1.50;;
10277;SDS011;5184;51.376;7.148;2022-09-03T08:26:34;1.73;;;1.40;;
10277;SDS011;5184;51.376;7.148;2022-09-03T08:29:00;3.53;;;1.30;;
10277;SDS011;5184;51.376;7.148;2022-09-03T08:31:26;4.30;;;1.57;;
10277;SDS011;5184;51.376;7.148;2022-09-03T08:33:53;2.03;;;1.40;;
10277;SDS011;5184;51.376;7.148;2022-09-03T08:36:20;2.33;;;1.30;;
10277;SDS011;5184;51.376;7.148;2022-09-03T08:38:47;1.30;;;1.10;;
10277;SDS011;5184;51.376;7.148;2022-09-03T08:41:14;1.40;;;1.30;;
10277;SDS011;5184;51.376;7.148;2022-09-03T08:43:52;1.57;;;1.47;;
10277;SDS011;5184;51.376;7.148;2022-09-03T08:46:14;2.23;;;1.63;;
10277;SDS011;5184;51.376;7.148;2022-09-03T08:48:40;3.57;;;1.77;;
10277;SDS011;5184;51.376;7.148;2022-09-03T08:51:08;1.50;;;1.30;;
10277;SDS011;5184;51.376;7.148;2022-09-03T08:53:43;1.60;;;1.50;;
10277;SDS011;5184;51.376;7.148;2022-09-03T08:56:10;2.10;;;1.63;;
10277;SDS011;5184;51.376;7.148;2022-09-03T08:58:36;1.93;;;1.40;;
10277;SDS011;5184;51.376;7.148;2022-09-03T09:01:09;1.50;;;1.37;;
10277;SDS011;5184;51.376;7.148;2022-09-03T09:03:41;2.47;;;1.37;;
10277;SDS011;5184;51.376;7.148;2022-09-03T09:06:17;1.63;;;1.53;;
10277;SDS011;5184;51.376;7.148;2022-09-03T09:08:47;1.60;;;1.50;;
10277;SDS011;5184;51.376;7.148;2022-09-03T09:11:17;1.60;;;1.37;;
10277;SDS011;5184;51.376;7.148;2022-09-03T09:13:50;3.87;;;1.50;;
10277;SDS011;5184;51.376;7.148;2022-09-03T09:16:18;3.23;;;1.70;;
10277;SDS011;5184;51.376;7.148;2022-09-03T09:18:51;2.73;;;1.40;;
10277;SDS011;5184;51.376;7.148;2022-09-03T09:21:15;1.47;;;1.37;;
10277;SDS011;5184;51.376;7.148;2022-09-03T09:23:43;2.50;;;1.60;;
10277;SDS011;5184;51.376;7.148;2022-09-03T09:26:11;3.60;;;1.70;;
10277;SDS011;5184;51.376;7.148;2022-09-03T09:28:37;2.30;;;1.60;;
10277;SDS011;5184;51.376;7.148;2022-09-03T09:31:04;2.00;;;1.70;;
10277;SDS011;5184;51.376;7.148;2022-09-03T09:33:31;2.33;;;1.80;;
10277;SDS011;5184;51.376;7.148;2022-09-03T09:35:58;2.40;;;1.70;;
10277;SDS011;5184;51.376;7.148;2022-09-03T09:38:28;2.20;;;1.53;;
10277;SDS011;5184;51.376;7.148;2022-09-03T09:40:54;1.87;;;1.50;;
10277;SDS011;5184;51.376;7.148;2022-09-03T09:43:21;2.10;;;1.63;;
10277;SDS011;5184;51.376;7.148;2022-09-03T09:45:49;2.87;;;2.00;;
10277;SDS011;5184;51.376;7.148;2022-09-03T09:48:25;2.43;;;1.77;;
10277;SDS011;5184;51.376;7.148;2022-09-03T09:51:08;1.80;;;1.70;;
10277;SDS011;5184;51.376;7.148;2022-09-03T09:53:35;3.13;;;1.70;;
10277;SDS011;5184;51.376;7.148;2022-09-03T09:56:01;4.17;;;1.50;;
10277;SDS011;5184;51.376;7.148;2022-09-03T09:58:28;2.97;;;1.60;;
10277;SDS011;5184;51.376;7.148;2022-09-03T10:00:57;3.77;;;1.60;;
10277;SDS011;5184;51.376;7.148;2022-09-03T10:03:23;3.63;;;1.43;;
10277;SDS011;5184;51.376;7.148;2022-09-03T10:08:26;1.60;;;1.50;;
10277;SDS011;5184;51.376;7.148;2022-09-03T10:10:53;2.10;;;1.90;;
10277;SDS011;5184;51.376;7.148;2022-09-03T10:13:22;2.87;;;1.87;;
10277;SDS011;5184;51.376;7.148;2022-09-03T10:15:54;3.03;;;1.40;;
10277;SDS011;5184;51.376;7.148;2022-09-03T10:18:28;1.87;;;1.67;;
10277;SDS011;5184;51.376;7.148;2022-09-03T10:20:56;2.20;;;1.80;;
10277;SDS011;5184;51.376;7.148;2022-09-03T10:23:22;2.70;;;1.53;;
10277;SDS011;5184;51.376;7.148;2022-09-03T10:26:10;4.43;;;1.47;;
10277;SDS011;5184;51.376;7.148;2022-09-03T10:28:38;1.63;;;1.53;;
10277;SDS011;5184;51.376;7.148;2022-09-03T10:31:14;1.70;;;1.40;;
10277;SDS011;5184;51.376;7.148;2022-09-03T10:33:48;2.77;;;1.80;;
10277;SDS011;5184;51.376;7.148;2022-09-03T10:36:17;2.23;;;1.70;;
10277;SDS011;5184;51.376;7.148;2022-09-03T10:38:44;2.27;;;1.57;;
10277;SDS011;5184;51.376;7.148;2022-09-03T10:41:14;2.03;;;1.60;;
10277;SDS011;5184;51.376;7.148;2022-09-03T10:44:30;3.50;;;1.87;;
10277;SDS011;5184;51.376;7.148;2022-09-03T10:46:48;3.73;;;1.70;;
10277;SDS011;5184;51.376;7.148;2022-09-03T10:49:36;2.20;;;1.70;;
10277;SDS011;5184;51.376;7.148;2022-09-03T10:52:09;2.40;;;1.90;;
10277;SDS011;5184;51.376;7.148;2022-09-03T10:54:40;7.43;;;2.90;;
10277;SDS011;5184;51.376;7.148;2022-09-03T10:57:10;2.50;;;1.63;;
10277;SDS011;5184;51.376;7.148;2022-09-03T10:59:50;1.83;;;1.60;;
10277;SDS011;5184;51.376;7.148;2022-09-03T11:02:42;2.53;;;1.83;;
10277;SDS011;5184;51.376;7.148;2022-09-03T11:05:32;3.37;;;1.70;;
10277;SDS011;5184;51.376;7.148;2022-09-03T11:08:02;3.83;;;1.90;;
10277;SDS011;5184;51.376;7.148;2022-09-03T11:10:33;2.10;;;1.60;;
10277;SDS011;5184;51.376;7.148;2022-09-03T11:13:03;3.20;;;1.60;;
10277;SDS011;5184;51.376;7.148;2022-09-03T11:15:32;3.87;;;1.60;;
10277;SDS011;5184;51.376;7.148;2022-09-03T11:18:03;3.13;;;1.83;;
10277;SDS011;5184;51.376;7.148;2022-09-03T11:20:30;1.73;;;1.63;;
10277;SDS011;5184;51.376;7.148;2022-09-03T11:23:00;1.73;;;1.50;;
10277;SDS011;5184;51.376;7.148;2022-09-03T11:25:30;1.90;;;1.70;;
10277;SDS011;5184;51.376;7.148;2022-09-03T11:31:12;2.10;;;1.90;;
10277;SDS011;5184;51.376;7.148;2022-09-03T11:33:17;4.07;;;1.90;;
10277;SDS011;5184;51.376;7.148;2022-09-03T11:35:44;2.70;;;1.60;;
10277;SDS011;5184;51.376;7.148;2022-09-03T11:40:56;3.80;;;1.80;;
10277;SDS011;5184;51.376;7.148;2022-09-03T11:43:29;4.53;;;1.90;;
10277;SDS011;5184;51.376;7.148;2022-09-03T11:48:35;2.83;;;1.60;;
10277;SDS011;5184;51.376;7.148;2022-09-03T11:50:59;3.50;;;1.50;;
10277;SDS011;5184;51.376;7.148;2022-09-03T11:53:26;2.40;;;1.70;;
10277;SDS011;5184;51.376;7.148;2022-09-03T11:55:58;2.70;;;1.50;;
10277;SDS011;5184;51.376;7.148;2022-09-03T11:58:37;2.10;;;1.90;;
10277;SDS011;5184;51.376;7.148;2022-09-03T12:01:06;4.37;;;1.80;;
10277;SDS011;5184;51.376;7.148;2022-09-03T12:06:27;2.67;;;1.87;;
10277;SDS011;5184;51.376;7.148;2022-09-03T12:09:05;2.00;;;1.80;;
10277;SDS011;5184;51.376;7.148;2022-09-03T12:11:37;3.13;;;1.90;;
10277;SDS011;5184;51.376;7.148;2022-09-03T12:14:05;2.27;;;2.00;;
10277;SDS011;5184;51.376;7.148;2022-09-03T12:16:34;2.23;;;2.03;;
10277;SDS011;5184;51.376;7.148;2022-09-03T12:19:02;3.00;;;1.67;;
10277;SDS011;5184;51.376;7.148;2022-09-03T12:21:26;2.07;;;1.87;;
10277;SDS011;5184;51.376;7.148;2022-09-03T12:23:53;3.23;;;1.80;;
10277;SDS011;5184;51.376;7.148;2022-09-03T12:26:22;2.80;;;2.20;;
10277;SDS011;5184;51.376;7.148;2022-09-03T12:28:50;4.33;;;2.30;;
10277;SDS011;5184;51.376;7.148;2022-09-03T12:31:19;7.83;;;2.47;;
10277;SDS011;5184;51.376;7.148;2022-09-03T12:33:46;3.43;;;2.13;;
10277;SDS011;5184;51.376;7.148;2022-09-03T12:36:12;3.37;;;2.23;;
10277;SDS011;5184;51.376;7.148;2022-09-03T12:38:39;2.87;;;2.53;;
10277;SDS011;5184;51.376;7.148;2022-09-03T12:41:18;2.43;;;2.03;;
10277;SDS011;5184;51.376;7.148;2022-09-03T12:43:33;3.07;;;2.10;;
10277;SDS011;5184;51.376;7.148;2022-09-03T12:46:00;3.80;;;1.90;;
10277;SDS011;5184;51.376;7.148;2022-09-03T12:48:27;2.43;;;2.23;;
10277;SDS011;5184;51.376;7.148;2022-09-03T12:51:00;2.07;;;1.83;;
10277;SDS011;5184;51.376;7.148;2022-09-03T12:53:22;2.30;;;2.10;;
10277;SDS011;5184;51.376;7.148;2022-09-03T12:55:52;2.10;;;1.90;;
10277;SDS011;5184;51.376;7.148;2022-09-03T12:58:20;2.35;;;2.10;;
10277;SDS011;5184;51.376;7.148;2022-09-03T13:00:51;2.17;;;1.97;;
10277;SDS011;5184;51.376;7.148;2022-09-03T13:03:18;2.40;;;2.20;;
10277;SDS011;5184;51.376;7.148;2022-09-03T13:05:46;4.30;;;2.30;;
10277;SDS011;5184;51.376;7.148;2022-09-03T13:08:22;2.40;;;2.13;;
10277;SDS011;5184;51.376;7.148;2022-09-03T13:10:50;2.50;;;2.30;;
10277;SDS011;5184;51.376;7.148;2022-09-03T13:13:22;3.60;;;2.30;;
10277;SDS011;5184;51.376;7.148;2022-09-03T13:15:54;4.40;;;2.33;;
10277;SDS011;5184;51.376;7.148;2022-09-03T13:18:43;2.57;;;2.23;;
10277;SDS011;5184;51.376;7.148;2022-09-03T13:21:20;2.17;;;2.07;;
10277;SDS011;5184;51.376;7.148;2022-09-03T13:26:34;3.73;;;2.50;;
10277;SDS011;5184;51.376;7.148;2022-09-03T13:29:18;3.37;;;2.47;;
10277;SDS011;5184;51.376;7.148;2022-09-03T13:31:46;3.43;;;2.60;;
10277;SDS011;5184;51.376;7.148;2022-09-03T13:34:22;3.17;;;2.40;;
10277;SDS011;5184;51.376;7.148;2022-09-03T13:36:55;3.10;;;2.40;;
10277;SDS011;5184;51.376;7.148;2022-09-03T13:39:26;2.63;;;2.20;;
10277;SDS011;5184;51.376;7.148;2022-09-03T13:42:11;3.50;;;2.40;;
10277;SDS011;5184;51.376;7.148;2022-09-03T13:44:41;2.87;;;2.30;;
10277;SDS011;5184;51.376;7.148;2022-09-03T13:47:17;2.63;;;2.37;;
10277;SDS011;5184;51.376;7.148;2022-09-03T13:49:48;2.43;;;2.23;;
10277;SDS011;5184;51.376;7.148;2022-09-03T13:52:24;3.70;;;2.63;;
10277;SDS011;5184;51.376;7.148;2022-09-03T13:54:50;2.80;;;2.53;;
10277;SDS011;5184;51.376;7.148;2022-09-03T13:59:51;2.20;;;2.10;;
10277;SDS011;5184;51.376;7.148;2022-09-03T14:02:22;2.80;;;2.50;;
10277;SDS011;5184;51.376;7.148;2022-09-03T14:04:50;2.73;;;2.50;;
10277;SDS011;5184;51.376;7.148;2022-09-03T14:07:18;2.63;;;2.43;;
10277;SDS011;5184;51.376;7.148;2022-09-03T14:12:20;3.07;;;2.30;;
10277;SDS011;5184;51.376;7.148;2022-09-03T14:14:55;4.10;;;2.50;;
10277;SDS011;5184;51.376;7.148;2022-09-03T14:20:03;7.53;;;6.83;;
10277;SDS011;5184;51.376;7.148;2022-09-03T14:22:49;2.57;;;2.27;;
10277;SDS011;5184;51.376;7.148;2022-09-03T14:25:19;3.17;;;2.87;;
10277;SDS011;5184;51.376;7.148;2022-09-03T14:27:45;2.40;;;2.20;;
10277;SDS011;5184;51.376;7.148;2022-09-03T14:30:18;2.63;;;2.43;;
10277;SDS011;5184;51.376;7.148;2022-09-03T14:32:51;2.20;;;2.00;;
10277;SDS011;5184;51.376;7.148;2022-09-03T14:38:07;4.10;;;2.80;;
10277;SDS011;5184;51.376;7.148;2022-09-03T14:40:43;2.97;;;2.40;;
10277;SDS011;5184;51.376;7.148;2022-09-03T14:43:23;4.27;;;2.30;;
10277;SDS011;5184;51.376;7.148;2022-09-03T14:49:16;3.33;;;2.80;;
10277;SDS011;5184;51.376;7.148;2022-09-03T14:52:52;4.80;;;3.00;;
10277;SDS011;5184;51.376;7.148;2022-09-03T14:54:37;2.90;;;2.70;;
10277;SDS011;5184;51.376;7.148;2022-09-03T14:57:24;3.20;;;2.90;;
10277;SDS011;5184;51.376;7.148;2022-09-03T15:00:06;2.47;;;2.27;;
10277;SDS011;5184;51.376;7.148;2022-09-03T15:02:37;2.60;;;2.40;;
10277;SDS011;5184;51.376;7.148;2022-09-03T15:05:08;2.53;;;2.23;;
10277;SDS011;5184;51.376;7.148;2022-09-03T15:07:41;2.47;;;2.27;;
10277;SDS011;5184;51.376;7.148;2022-09-03T15:12:44;2.63;;;2.17;;
10277;SDS011;5184;51.376;7.148;2022-09-03T15:17:53;2.27;;;2.07;;
10277;SDS011;5184;51.376;7.148;2022-09-03T15:20:20;3.27;;;2.20;;
10277;SDS011;5184;51.376;7.148;2022-09-03T15:23:01;3.10;;;2.80;;
10277;SDS011;5184;51.376;7.148;2022-09-03T15:25:51;5.93;;;2.90;;
10277;SDS011;5184;51.376;7.148;2022-09-03T15:28:21;3.30;;;3.00;;
10277;SDS011;5184;51.376;7.148;2022-09-03T15:30:53;2.93;;;2.20;;
10277;SDS011;5184;51.376;7.148;2022-09-03T15:33:22;3.43;;;2.30;;
10277;SDS011;5184;51.376;7.148;2022-09-03T15:35:59;4.30;;;2.60;;
10277;SDS011;5184;51.376;7.148;2022-09-03T15:41:20;2.63;;;1.90;;
10277;SDS011;5184;51.376;7.148;2022-09-03T15:43:46;2.30;;;2.10;;
10277;SDS011;5184;51.376;7.148;2022-09-03T15:46:13;3.33;;;2.30;;
10277;SDS011;5184;51.376;7.148;2022-09-03T15:48:44;3.37;;;2.23;;
10277;SDS011;5184;51.376;7.148;2022-09-03T15:51:35;2.73;;;2.00;;
10277;SDS011;5184;51.376;7.148;2022-09-03T15:54:08;2.63;;;1.97;;
10277;SDS011;5184;51.376;7.148;2022-09-03T15:56:34;2.10;;;1.90;;
10277;SDS011;5184;51.376;7.148;2022-09-03T15:59:05;3.10;;;2.20;;
10277;SDS011;5184;51.376;7.148;2022-09-03T16:01:34;2.13;;;1.93;;
10277;SDS011;5184;51.376;7.148;2022-09-03T16:04:01;2.63;;;1.80;;
10277;SDS011;5184;51.376;7.148;2022-09-03T16:06:31;2.67;;;2.00;;